Time;durP1;ratioP1;P1;durP2;ratioP2;P2;SDS_P1;SDS_P2;PMS_P1;PMS_P2;Temp;Humidity;BMP_temperature;BMP_pressure;BME280_temperature;BME280_humidity;BME280_pressure;Samples;Min_cycle;Max_cycle;Signal;HPM_P1;HPM_P2
2021/12/23 00:00:58;;;;;;;31.13;16.45;;;;;;;-1.06;100.00;101745.59;5090965;28;20077;-77
2021/12/23 00:03:24;;;;;;;24.48;15.30;;;;;;;-1.08;100.00;101748.06;5111730;28;20039;-77
2021/12/23 00:05:57;;;;;;;27.15;15.23;;;;;;;-1.10;100.00;101739.31;5091070;28;20479;-80
2021/12/23 00:08:22;;;;;;;30.80;17.05;;;;;;;-1.12;100.00;101735.69;5105619;28;20035;-78
2021/12/23 00:10:48;;;;;;;27.08;16.52;;;;;;;-1.12;100.00;101740.84;5107537;28;20035;-79
2021/12/23 00:13:14;;;;;;;29.83;16.77;;;;;;;-1.12;100.00;101752.88;5111993;28;20035;-79
2021/12/23 00:16:01;;;;;;;29.63;16.95;;;;;;;-1.12;100.00;101746.00;5098527;28;20020;-79
2021/12/23 00:23:52;;;;;;;30.27;15.85;;;;;;;-1.17;100.00;101716.34;5099704;28;20054;-79
2021/12/23 00:26:18;;;;;;;30.08;16.27;;;;;;;-1.16;100.00;101714.69;5078645;28;20160;-78
2021/12/23 00:28:43;;;;;;;31.35;18.50;;;;;;;-1.18;100.00;101706.81;5105286;28;20364;-78
2021/12/23 00:31:09;;;;;;;28.60;16.88;;;;;;;-1.17;100.00;101705.13;5101183;28;20361;-77
2021/12/23 00:33:36;;;;;;;34.05;17.83;;;;;;;-1.16;100.00;101697.47;5094659;28;20038;-77
2021/12/23 00:36:04;;;;;;;30.30;16.50;;;;;;;-1.11;100.00;101669.41;5110068;28;20027;-78
2021/12/23 00:38:36;;;;;;;30.05;16.48;;;;;;;-1.05;100.00;101687.97;5083034;28;20040;-78
2021/12/23 00:41:04;;;;;;;29.08;16.15;;;;;;;-1.03;100.00;101687.31;5065060;28;20021;-78
2021/12/23 00:43:32;;;;;;;28.13;15.75;;;;;;;-0.97;100.00;101683.41;5061593;28;20376;-77
2021/12/23 00:45:59;;;;;;;29.67;16.65;;;;;;;-0.94;100.00;101675.88;5069397;28;20423;-78
2021/12/23 00:48:25;;;;;;;29.33;17.17;;;;;;;-0.89;100.00;101656.47;5065939;28;20023;-78
2021/12/23 00:50:51;;;;;;;29.17;17.23;;;;;;;-0.85;100.00;101654.22;5075335;28;20056;-78
2021/12/23 00:53:19;;;;;;;31.27;16.77;;;;;;;-0.80;100.00;101657.19;5061510;28;20025;-77
2021/12/23 00:55:52;;;;;;;28.20;16.40;;;;;;;-0.78;100.00;101645.25;5069648;28;20115;-76
2021/12/23 00:58:22;;;;;;;27.98;15.77;;;;;;;-0.77;100.00;101636.72;5073636;28;20027;-77
2021/12/23 01:00:49;;;;;;;28.88;16.25;;;;;;;-0.74;100.00;101615.38;5056495;28;20141;-78
2021/12/23 01:03:15;;;;;;;31.10;17.20;;;;;;;-0.73;100.00;101623.25;5057400;28;20106;-77
2021/12/23 01:05:42;;;;;;;31.13;15.85;;;;;;;-0.70;100.00;101623.47;5068064;28;20040;-78
2021/12/23 01:08:07;;;;;;;26.20;16.75;;;;;;;-0.70;100.00;101632.91;5055863;28;20421;-78
2021/12/23 01:10:34;;;;;;;29.13;16.60;;;;;;;-0.72;100.00;101630.22;5059720;28;20033;-79
2021/12/23 01:13:03;;;;;;;27.45;15.45;;;;;;;-0.74;100.00;101631.78;5055700;28;20036;-78
2021/12/23 01:18:19;;;;;;;27.02;15.48;;;;;;;-0.75;100.00;101629.09;5053800;28;20056;-78
2021/12/23 01:20:53;;;;;;;34.28;16.85;;;;;;;-0.80;100.00;101626.16;5063771;28;20028;-79
2021/12/23 01:23:22;;;;;;;31.67;15.68;;;;;;;-0.82;100.00;101629.41;5070259;28;20044;-79
2021/12/23 01:25:49;;;;;;;33.15;16.85;;;;;;;-0.84;100.00;101624.16;5067379;28;20028;-78
2021/12/23 01:28:15;;;;;;;31.38;17.33;;;;;;;-0.86;100.00;101620.53;5052827;28;20534;-78
2021/12/23 01:30:40;;;;;;;31.92;17.15;;;;;;;-0.88;100.00;101614.38;5060961;28;20061;-78
2021/12/23 01:33:08;;;;;;;33.33;19.13;;;;;;;-0.93;100.00;101608.84;5058581;28;20055;-79
2021/12/23 01:35:35;;;;;;;29.77;16.92;;;;;;;-0.94;100.00;101622.53;5066451;28;20028;-78
2021/12/23 01:38:01;;;;;;;30.60;17.10;;;;;;;-0.95;100.00;101606.91;5068240;28;20510;-77
2021/12/23 01:40:28;;;;;;;37.28;18.88;;;;;;;-0.98;100.00;101609.28;5077174;28;20032;-78
2021/12/23 01:42:55;;;;;;;31.90;18.27;;;;;;;-1.02;100.00;101609.06;5107020;28;20032;-78
2021/12/23 01:45:24;;;;;;;32.00;17.20;;;;;;;-1.05;100.00;101613.97;5098605;28;20026;-78
2021/12/23 01:47:50;;;;;;;35.35;19.33;;;;;;;-1.06;100.00;101617.34;5103770;28;20495;-77
2021/12/23 01:50:20;;;;;;;39.13;18.95;;;;;;;-1.04;100.00;101613.19;5082134;28;20034;-79
2021/12/23 01:52:46;;;;;;;38.60;20.52;;;;;;;-1.06;100.00;101604.44;5097362;28;20039;-79
2021/12/23 01:55:12;;;;;;;38.03;20.63;;;;;;;-1.06;100.00;101607.03;5107031;28;20089;-78
2021/12/23 01:57:40;;;;;;;40.72;20.33;;;;;;;-1.01;100.00;101599.59;5083590;28;20387;-78
2021/12/23 02:00:10;;;;;;;39.50;21.23;;;;;;;-1.00;100.00;101572.09;5110701;28;20032;-79
2021/12/23 02:02:36;;;;;;;37.15;20.95;;;;;;;-1.02;100.00;101564.22;5100370;28;20032;-78
2021/12/23 02:05:02;;;;;;;40.50;21.40;;;;;;;-1.02;100.00;101544.47;5112490;28;20126;-78
2021/12/23 02:07:27;;;;;;;41.55;20.85;;;;;;;-1.00;100.00;101547.16;5117089;28;20035;-79
2021/12/23 02:09:56;;;;;;;48.45;24.80;;;;;;;-0.93;100.00;101545.94;5118261;28;20419;-79
2021/12/23 02:12:22;;;;;;;45.67;23.92;;;;;;;-0.93;100.00;101543.34;5087829;28;20501;-79
2021/12/23 02:14:50;;;;;;;47.53;25.35;;;;;;;-0.94;100.00;101528.63;5100689;28;20976;-79
2021/12/23 02:17:16;;;;;;;46.17;24.23;;;;;;;-0.93;100.00;101536.50;5090996;28;20027;-77
2021/12/23 02:19:41;;;;;;;47.58;25.67;;;;;;;-0.98;100.00;101537.84;5116968;28;20019;-77
2021/12/23 02:22:07;;;;;;;47.65;23.73;;;;;;;-0.94;100.00;101549.31;5112074;28;20036;-77
2021/12/23 02:24:38;;;;;;;47.28;25.00;;;;;;;-0.94;100.00;101539.84;5097328;28;20011;-79
2021/12/23 02:27:04;;;;;;;49.13;26.02;;;;;;;-0.93;100.00;101536.50;5102284;28;20028;-79
2021/12/23 02:29:29;;;;;;;48.80;26.42;;;;;;;-0.91;100.00;101536.59;5117290;28;20085;-79
2021/12/23 02:31:58;;;;;;;46.20;25.25;;;;;;;-0.94;100.00;101536.38;5109287;28;20031;-78
2021/12/23 02:34:25;;;;;;;55.20;27.00;;;;;;;-0.98;100.00;101536.94;5088356;28;20040;-78
2021/12/23 02:36:57;;;;;;;55.17;27.38;;;;;;;-0.96;100.00;101530.19;5117185;28;20032;-79
2021/12/23 02:39:25;;;;;;;49.47;27.25;;;;;;;-0.98;100.00;101526.63;5112022;28;20043;-79
2021/12/23 02:41:51;;;;;;;54.10;27.38;;;;;;;-0.95;100.00;101535.50;5096395;28;20028;-79
2021/12/23 02:44:18;;;;;;;61.58;30.20;;;;;;;-0.95;100.00;101527.75;5116514;28;20107;-79
2021/12/23 02:46:48;;;;;;;58.45;30.08;;;;;;;-0.89;100.00;101528.19;5090769;28;20031;-78
2021/12/23 02:49:14;;;;;;;57.95;30.50;;;;;;;-0.87;100.00;101516.28;5114012;28;20027;-78
2021/12/23 02:51:43;;;;;;;62.88;32.25;;;;;;;-0.87;100.00;101500.78;5106152;28;20034;-79
2021/12/23 02:54:08;;;;;;;65.15;31.67;;;;;;;-0.85;100.00;101511.25;5107715;28;20100;-79
2021/12/23 02:56:35;;;;;;;70.22;32.75;;;;;;;-0.90;100.00;101505.72;5112917;28;20028;-78
2021/12/23 02:59:01;;;;;;;66.78;32.80;;;;;;;-0.82;100.00;101503.69;5087223;28;20029;-78
2021/12/23 03:01:26;;;;;;;70.13;34.40;;;;;;;-0.85;100.00;101506.06;5109814;28;20055;-78
2021/12/23 03:03:54;;;;;;;74.82;35.15;;;;;;;-0.79;100.00;101498.75;5089497;28;20028;-79
2021/12/23 03:06:22;;;;;;;69.78;32.72;;;;;;;-0.83;100.00;101498.44;5097281;28;20039;-79
2021/12/23 03:08:52;;;;;;;71.78;34.25;;;;;;;-0.81;100.00;101502.00;5110127;28;20023;-79
2021/12/23 03:11:21;;;;;;;70.60;34.17;;;;;;;-0.79;100.00;101503.91;5109080;28;20037;-79
2021/12/23 03:13:48;;;;;;;66.45;31.85;;;;;;;-0.88;100.00;101493.81;5113324;28;20023;-79
2021/12/23 03:16:17;;;;;;;66.57;33.53;;;;;;;-0.87;100.00;101484.38;5114114;28;20040;-79
2021/12/23 03:18:43;;;;;;;64.20;31.83;;;;;;;-0.85;100.00;101468.19;5108948;28;20015;-78
2021/12/23 03:21:09;;;;;;;69.03;32.88;;;;;;;-0.91;100.00;101446.19;5115645;28;20059;-78
2021/12/23 03:23:35;;;;;;;68.38;32.25;;;;;;;-0.88;100.00;101446.44;5079463;28;20510;-78
2021/12/23 03:26:05;;;;;;;65.50;32.28;;;;;;;-0.86;100.00;101439.66;5080339;28;20393;-79
2021/12/23 03:28:32;;;;;;;70.65;31.52;;;;;;;-0.90;100.00;101450.56;5077657;28;20529;-79
2021/12/23 03:30:58;;;;;;;66.47;29.92;;;;;;;-0.87;100.00;101458.53;5098244;28;20504;-79
2021/12/23 03:33:24;;;;;;;71.97;32.55;;;;;;;-0.88;100.00;101441.25;5102605;28;20437;-79
2021/12/23 03:35:50;;;;;;;66.25;31.83;;;;;;;-0.90;100.00;101437.66;5103010;28;20028;-78
2021/12/23 03:38:16;;;;;;;74.72;30.90;;;;;;;-0.91;100.00;101446.19;5073604;28;20378;-78
2021/12/23 03:40:42;;;;;;;71.90;33.30;;;;;;;-0.90;100.00;101473.81;5074681;28;20024;-79
2021/12/23 03:43:11;;;;;;;75.63;32.03;;;;;;;-0.90;100.00;101489.31;5066917;28;20033;-77
2021/12/23 03:45:46;;;;;;;76.05;32.10;;;;;;;-0.85;100.00;101467.31;5072850;28;20024;-78
2021/12/23 03:48:37;;;;;;;74.15;31.23;;;;;;;-0.88;100.00;101461.94;5057861;28;20025;-78
2021/12/23 03:51:03;;;;;;;68.15;31.40;;;;;;;-0.87;100.00;101463.69;5071711;28;20060;-78
2021/12/23 03:53:29;;;;;;;75.00;31.55;;;;;;;-0.89;100.00;101467.88;5076093;28;20040;-78
2021/12/23 03:55:54;;;;;;;59.75;28.45;;;;;;;-0.88;100.00;101467.09;5065791;28;20029;-79
2021/12/23 03:58:23;;;;;;;68.03;30.20;;;;;;;-0.86;100.00;101466.41;5060800;28;20040;-79
2021/12/23 04:00:50;;;;;;;74.72;30.85;;;;;;;-0.75;100.00;101469.75;5070676;28;20043;-79
2021/12/23 04:03:15;;;;;;;68.35;30.98;;;;;;;-0.83;100.00;101464.84;5067102;28;20391;-79
2021/12/23 04:05:41;;;;;;;73.40;31.85;;;;;;;-0.81;100.00;101479.66;5059954;28;20039;-79
2021/12/23 04:08:07;;;;;;;71.03;30.88;;;;;;;-0.81;100.00;101478.75;5056175;28;20037;-80
2021/12/23 04:10:36;;;;;;;76.95;31.98;;;;;;;-0.82;100.00;101471.81;5054462;28;20036;-79
2021/12/23 04:13:02;;;;;;;71.40;32.13;;;;;;;-0.82;100.00;101462.34;5072037;28;20029;-78
2021/12/23 04:15:28;;;;;;;79.78;33.83;;;;;;;-0.81;100.00;101464.16;5065912;28;20480;-79
2021/12/23 04:17:53;;;;;;;75.72;31.10;;;;;;;-0.81;100.00;101468.41;5065599;28;20469;-78
2021/12/23 04:20:23;;;;;;;81.55;32.83;;;;;;;-0.79;100.00;101459.97;5065486;28;20036;-79
2021/12/23 04:22:54;;;;;;;77.03;33.38;;;;;;;-0.74;100.00;101455.16;5057996;28;20033;-80
2021/12/23 04:25:22;;;;;;;80.93;34.63;;;;;;;-0.77;100.00;101445.50;5062873;28;20037;-80
2021/12/23 04:27:49;;;;;;;83.70;33.38;;;;;;;-0.76;100.00;101442.16;5066784;28;20092;-79
2021/12/23 04:30:17;;;;;;;85.97;32.90;;;;;;;-0.72;100.00;101454.50;5058699;28;20555;-80
2021/12/23 04:32:45;;;;;;;74.30;32.22;;;;;;;-0.73;100.00;101454.38;5060506;28;20050;-79
2021/12/23 04:35:10;;;;;;;81.65;32.40;;;;;;;-0.78;100.00;101459.22;5068013;28;20032;-79
2021/12/23 04:37:36;;;;;;;89.90;34.42;;;;;;;-0.75;100.00;101443.03;5074373;28;20123;-78
2021/12/23 04:40:06;;;;;;;83.20;35.25;;;;;;;-0.75;100.00;101432.69;5068074;28;20098;-78
2021/12/23 04:42:33;;;;;;;78.47;32.70;;;;;;;-0.75;100.00;101431.00;5073844;28;20503;-79
2021/12/23 04:44:59;;;;;;;83.03;33.13;;;;;;;-0.75;100.00;101427.53;5056186;28;20489;-79
2021/12/23 04:47:24;;;;;;;80.25;33.58;;;;;;;-0.75;100.00;101415.50;5055989;28;20055;-79
2021/12/23 04:49:52;;;;;;;75.13;31.33;;;;;;;-0.76;100.00;101413.72;5057847;28;20067;-79
2021/12/23 04:52:17;;;;;;;85.15;33.70;;;;;;;-0.78;100.00;101409.22;5064769;28;20024;-79
2021/12/23 04:54:43;;;;;;;76.03;31.95;;;;;;;-0.79;100.00;101415.19;5061791;28;20152;-79
2021/12/23 04:57:08;;;;;;;87.13;33.78;;;;;;;-0.77;100.00;101408.44;5067470;28;20065;-80
2021/12/23 04:59:34;;;;;;;78.63;32.67;;;;;;;-0.76;100.00;101407.63;5072955;28;20027;-80
2021/12/23 05:01:59;;;;;;;86.93;34.35;;;;;;;-0.77;100.00;101404.16;5060474;28;20029;-78
2021/12/23 05:04:25;;;;;;;82.95;34.95;;;;;;;-0.79;100.00;101402.25;5057344;28;20087;-78
2021/12/23 05:06:53;;;;;;;86.72;34.70;;;;;;;-0.81;100.00;101402.16;5067483;28;20460;-79
2021/12/23 05:09:19;;;;;;;77.90;32.33;;;;;;;-0.79;100.00;101395.38;5071615;28;20489;-79
2021/12/23 05:11:45;;;;;;;80.65;31.58;;;;;;;-0.79;100.00;101397.97;5056817;28;20090;-79
2021/12/23 05:14:11;;;;;;;81.50;33.88;;;;;;;-0.80;100.00;101391.03;5071595;28;20111;-79
2021/12/23 05:16:37;;;;;;;86.88;34.33;;;;;;;-0.77;100.00;101374.84;5061627;28;20036;-79
2021/12/23 05:19:03;;;;;;;85.95;33.70;;;;;;;-0.75;100.00;101370.69;5056404;28;20027;-79
2021/12/23 05:21:29;;;;;;;85.90;32.17;;;;;;;-0.69;100.00;101377.19;5054058;28;20033;-79
2021/12/23 05:23:54;;;;;;;84.07;32.72;;;;;;;-0.65;100.00;101372.22;5062474;28;20492;-79
2021/12/23 05:26:21;;;;;;;84.53;33.33;;;;;;;-0.63;100.00;101365.47;5065060;28;20035;-79
2021/12/23 05:28:47;;;;;;;80.13;31.08;;;;;;;-0.57;100.00;101360.72;5066853;28;20029;-79
2021/12/23 05:31:12;;;;;;;79.47;31.48;;;;;;;-0.55;100.00;101361.75;5063145;28;20103;-78
2021/12/23 05:33:37;;;;;;;76.30;30.17;;;;;;;-0.55;100.00;101359.16;5069371;28;20055;-78
2021/12/23 05:36:03;;;;;;;80.63;30.95;;;;;;;-0.55;100.00;101346.22;5069486;28;20021;-79
2021/12/23 05:38:29;;;;;;;80.78;31.88;;;;;;;-0.55;100.00;101349.69;5066212;28;20048;-79
2021/12/23 05:40:55;;;;;;;74.25;32.10;;;;;;;-0.49;100.00;101346.63;5067011;28;20036;-79
2021/12/23 05:43:21;;;;;;;78.35;32.97;;;;;;;-0.48;100.00;101335.50;5071520;28;20448;-79
2021/12/23 05:45:46;;;;;;;74.25;31.33;;;;;;;-0.47;100.00;101334.72;5064487;28;20043;-79
2021/12/23 05:48:12;;;;;;;74.50;30.10;;;;;;;-0.48;100.00;101345.84;5073794;28;20032;-79
2021/12/23 05:50:37;;;;;;;72.90;28.85;;;;;;;-0.43;100.00;101339.31;5064499;28;20415;-80
2021/12/23 05:53:03;;;;;;;79.22;32.25;;;;;;;-0.42;100.00;101346.28;5066525;28;20025;-79
2021/12/23 05:55:28;;;;;;;77.18;29.45;;;;;;;-0.39;100.00;101351.66;5062526;28;20472;-79
2021/12/23 05:57:55;;;;;;;74.78;29.92;;;;;;;-0.41;100.00;101348.06;5058451;28;20029;-79
2021/12/23 06:00:26;;;;;;;70.97;29.92;;;;;;;-0.40;100.00;101344.69;5070578;28;20029;-79
2021/12/23 06:02:53;;;;;;;73.63;30.35;;;;;;;-0.39;100.00;101346.50;5060962;28;20025;-79
2021/12/23 06:05:19;;;;;;;73.15;29.52;;;;;;;-0.38;100.00;101342.22;5073206;28;20096;-79
2021/12/23 06:07:45;;;;;;;72.75;29.52;;;;;;;-0.37;100.00;101329.41;5065371;28;20455;-78
2021/12/23 06:10:12;;;;;;;76.32;30.80;;;;;;;-0.35;100.00;101322.66;5073220;28;20514;-79
2021/12/23 06:12:38;;;;;;;80.22;29.55;;;;;;;-0.35;100.00;101322.66;5076642;28;20028;-79
2021/12/23 06:15:05;;;;;;;71.03;29.52;;;;;;;-0.33;100.00;101314.09;5077526;28;20056;-78
2021/12/23 06:17:33;;;;;;;75.38;31.25;;;;;;;-0.32;100.00;101318.50;5069747;28;20098;-79
2021/12/23 06:19:59;;;;;;;73.80;29.40;;;;;;;-0.30;100.00;101340.16;5066336;28;20040;-79
2021/12/23 06:22:26;;;;;;;75.03;28.98;;;;;;;-0.28;100.00;101336.00;5062350;28;20029;-79
2021/12/23 06:24:52;;;;;;;75.50;29.42;;;;;;;-0.26;100.00;101334.41;5070406;28;20116;-77
2021/12/23 06:27:20;;;;;;;76.22;30.45;;;;;;;-0.29;100.00;101335.09;5072550;28;20057;-79
2021/12/23 06:29:46;;;;;;;68.90;30.05;;;;;;;-0.28;100.00;101333.41;5064803;28;20033;-78
2021/12/23 06:32:12;;;;;;;74.57;30.15;;;;;;;-0.26;100.00;101331.81;5068967;28;20110;-79
2021/12/23 06:34:38;;;;;;;70.07;28.05;;;;;;;-0.25;100.00;101325.88;5070620;28;20024;-78
2021/12/23 06:37:04;;;;;;;71.60;28.35;;;;;;;-0.25;100.00;101316.41;5068456;28;20378;-79
2021/12/23 06:39:34;;;;;;;76.18;30.30;;;;;;;-0.24;100.00;101312.16;5058963;28;20058;-79
2021/12/23 06:42:04;;;;;;;76.78;30.45;;;;;;;-0.24;100.00;101310.44;5062971;28;20036;-78
2021/12/23 06:44:30;;;;;;;68.50;28.50;;;;;;;-0.22;100.00;101298.53;5066817;28;20053;-78
2021/12/23 06:46:56;;;;;;;68.82;28.73;;;;;;;-0.23;100.00;101288.97;5065042;28;20071;-78
2021/12/23 06:49:21;;;;;;;69.20;28.20;;;;;;;-0.20;100.00;101277.94;5062283;28;20387;-79
2021/12/23 06:51:47;;;;;;;75.22;28.38;;;;;;;-0.20;100.00;101267.59;5070798;28;20140;-78
2021/12/23 06:54:16;;;;;;;77.13;28.60;;;;;;;-0.20;100.00;101276.22;5059983;28;20493;-77
2021/12/23 06:56:43;;;;;;;78.43;29.95;;;;;;;-0.18;100.00;101284.09;5068891;28;20052;-78
2021/12/23 06:59:15;;;;;;;71.28;29.95;;;;;;;-0.17;100.00;101296.25;5069430;28;20035;-76
2021/12/23 07:01:43;;;;;;;76.68;29.10;;;;;;;-0.13;100.00;101285.31;5063312;28;20024;-76
2021/12/23 07:06:37;;;;;;;78.13;29.75;;;;;;;-0.12;100.00;101294.88;5056961;28;20035;-75
2021/12/23 07:09:05;;;;;;;65.80;28.25;;;;;;;-0.05;100.00;101299.63;5063129;28;20102;-75
2021/12/23 07:11:32;;;;;;;74.75;28.85;;;;;;;-0.04;100.00;101298.84;5062744;28;20029;-76
2021/12/23 07:13:58;;;;;;;70.90;29.58;;;;;;;-0.06;100.00;101300.44;5058514;28;20028;-75
2021/12/23 07:16:27;;;;;;;68.55;27.20;;;;;;;-0.08;100.00;101302.03;5065123;28;20108;-75
2021/12/23 07:18:53;;;;;;;77.53;30.80;;;;;;;-0.06;100.00;101303.00;5069763;28;20029;-75
2021/12/23 07:21:20;;;;;;;70.18;28.27;;;;;;;-0.03;100.00;101310.09;5061739;28;20111;-76
2021/12/23 07:23:45;;;;;;;72.95;28.52;;;;;;;-0.02;100.00;101307.59;5055207;28;20039;-75
2021/12/23 07:26:11;;;;;;;71.15;28.75;;;;;;;-0.01;100.00;101319.75;5055408;28;20377;-74
2021/12/23 07:28:36;;;;;;;72.43;27.45;;;;;;;0.00;100.00;101310.31;5060390;28;20029;-74
2021/12/23 07:31:02;;;;;;;68.03;28.38;;;;;;;0.01;100.00;101306.03;5071432;28;20029;-75
2021/12/23 07:33:27;;;;;;;74.07;30.10;;;;;;;0.01;100.00;101306.03;5071913;28;20024;-74
2021/12/23 07:35:53;;;;;;;72.97;28.85;;;;;;;0.04;100.00;101295.88;5068599;28;20021;-75
2021/12/23 07:38:18;;;;;;;70.07;27.80;;;;;;;0.04;100.00;101278.69;5070469;28;20031;-75
2021/12/23 07:40:44;;;;;;;68.65;28.17;;;;;;;0.06;100.00;101273.59;5080196;28;20042;-76
2021/12/23 07:43:31;;;;;;;82.80;31.27;;;;;;;0.07;100.00;101265.00;5101751;28;20047;-79
2021/12/23 07:45:56;;;;;;;73.13;27.67;;;;;;;0.08;100.00;101253.88;5103294;28;20392;-78
2021/12/23 07:48:22;;;;;;;63.20;26.88;;;;;;;0.13;100.00;101250.78;5108497;28;20031;-79
2021/12/23 07:50:47;;;;;;;72.88;28.42;;;;;;;0.13;100.00;101255.09;5099770;28;20417;-76
2021/12/23 07:53:14;;;;;;;68.00;26.63;;;;;;;0.14;100.00;101268.13;5100933;28;20475;-76
2021/12/23 07:55:44;;;;;;;73.60;29.73;;;;;;;0.16;100.00;101270.81;5099421;28;20036;-78
2021/12/23 07:58:09;;;;;;;70.40;28.00;;;;;;;0.17;100.00;101275.19;5102136;28;20515;-77
2021/12/23 08:00:35;;;;;;;66.78;27.75;;;;;;;0.16;100.00;101269.13;5101302;28;20118;-77
2021/12/23 08:03:02;;;;;;;71.32;28.48;;;;;;;0.17;100.00;101263.13;5099821;28;20036;-76
2021/12/23 08:05:28;;;;;;;64.38;27.25;;;;;;;0.20;100.00;101272.78;5099237;28;20049;-78
2021/12/23 08:07:55;;;;;;;68.93;28.52;;;;;;;0.21;100.00;101253.88;5103833;28;20028;-75
2021/12/23 08:10:20;;;;;;;70.30;28.75;;;;;;;0.21;100.00;101242.66;5094842;28;20035;-76
2021/12/23 08:12:46;;;;;;;66.65;28.25;;;;;;;0.20;100.00;101233.97;5105457;28;20043;-75
2021/12/23 08:15:12;;;;;;;68.20;28.88;;;;;;;0.25;100.00;101239.47;5092749;28;20107;-76
2021/12/23 08:17:38;;;;;;;58.70;26.88;;;;;;;0.28;100.00;101235.34;5097227;28;20533;-77
2021/12/23 08:20:05;;;;;;;69.97;27.38;;;;;;;0.30;100.00;101233.78;5096881;28;20020;-76
2021/12/23 08:22:32;;;;;;;63.53;26.92;;;;;;;0.35;100.00;101226.28;5092129;28;20031;-74
2021/12/23 08:24:58;;;;;;;71.30;27.10;;;;;;;0.37;100.00;101218.63;5105933;28;20070;-73
2021/12/23 08:27:27;;;;;;;76.10;29.58;;;;;;;0.38;100.00;101210.97;5104257;28;20062;-76
2021/12/23 08:29:53;;;;;;;69.22;26.98;;;;;;;0.41;100.00;101215.47;5086563;28;20035;-77
2021/12/23 08:32:22;;;;;;;59.65;26.00;;;;;;;0.42;100.00;101206.88;5102162;28;20023;-76
2021/12/23 08:34:48;;;;;;;65.93;27.05;;;;;;;0.41;100.00;101194.75;5111646;28;20077;-73
2021/12/23 08:37:14;;;;;;;64.00;26.48;;;;;;;0.43;100.00;101190.53;5102065;28;20047;-75
2021/12/23 08:39:41;;;;;;;62.05;26.65;;;;;;;0.44;100.00;101189.75;5076252;28;20051;-74
2021/12/23 08:42:10;;;;;;;66.03;27.77;;;;;;;0.44;100.00;101179.41;5084352;28;20031;-76
2021/12/23 08:44:36;;;;;;;66.20;27.58;;;;;;;0.45;100.00;101186.38;5091862;28;20028;-74
2021/12/23 08:47:03;;;;;;;72.65;29.63;;;;;;;0.46;100.00;101182.97;5091821;28;20035;-75
2021/12/23 08:49:29;;;;;;;68.05;28.73;;;;;;;0.48;100.00;101171.03;5085099;28;20475;-75
2021/12/23 08:51:58;;;;;;;66.70;27.70;;;;;;;0.49;100.00;101170.25;5077170;28;20052;-76
2021/12/23 08:54:24;;;;;;;66.63;27.25;;;;;;;0.48;100.00;101165.84;5075909;28;20020;-76
2021/12/23 08:56:50;;;;;;;66.68;27.55;;;;;;;0.52;100.00;101173.00;5081513;28;20070;-76
2021/12/23 08:59:17;;;;;;;70.50;29.10;;;;;;;0.53;100.00;101172.22;5087276;28;20122;-77
2021/12/23 09:01:42;;;;;;;68.03;27.08;;;;;;;0.55;100.00;101165.41;5076644;28;20024;-78
2021/12/23 09:04:08;;;;;;;71.03;26.67;;;;;;;0.56;100.00;101154.28;5087298;28;20054;-77
2021/12/23 09:06:35;;;;;;;69.03;27.38;;;;;;;0.56;100.00;101151.69;5089739;28;20085;-75
2021/12/23 09:09:02;;;;;;;71.85;28.85;;;;;;;0.58;100.00;101156.94;5076937;28;20120;-75
2021/12/23 09:11:27;;;;;;;72.95;28.33;;;;;;;0.59;100.00;101144.09;5075340;28;20090;-75
2021/12/23 09:13:53;;;;;;;68.90;28.52;;;;;;;0.65;100.00;101140.97;5078925;28;20037;-75
2021/12/23 09:16:19;;;;;;;66.80;26.63;;;;;;;0.69;100.00;101145.53;5085985;28;20028;-76
2021/12/23 09:18:44;;;;;;;65.25;26.10;;;;;;;0.76;100.00;101139.03;5074779;28;20454;-76
2021/12/23 09:21:12;;;;;;;72.07;26.48;;;;;;;0.77;100.00;101133.06;5079798;28;20385;-76
2021/12/23 09:23:39;;;;;;;66.82;26.58;;;;;;;0.82;100.00;101132.53;5086856;28;20045;-76
2021/12/23 09:26:09;;;;;;;66.15;25.80;;;;;;;0.86;100.00;101133.63;5081101;28;20036;-77
2021/12/23 09:28:56;;;;;;;72.72;28.42;;;;;;;0.93;100.00;101135.78;5084682;28;20047;-76
2021/12/23 09:34:07;;;;;;;54.17;23.08;;;;;;;0.99;100.00;101120.63;5081016;28;20039;-76
2021/12/23 09:36:32;;;;;;;60.00;25.65;;;;;;;1.02;100.00;101109.53;5094971;28;20036;-76
2021/12/23 09:39:00;;;;;;;63.20;26.75;;;;;;;1.06;100.00;101103.75;5097558;28;20025;-76
2021/12/23 09:41:28;;;;;;;59.30;25.05;;;;;;;1.08;100.00;101107.28;5086602;28;20024;-76
2021/12/23 09:43:57;;;;;;;71.00;25.98;;;;;;;1.13;100.00;101112.78;5091652;28;20099;-77
2021/12/23 09:46:23;;;;;;;62.28;25.73;;;;;;;1.18;100.00;101113.91;5074852;28;20036;-76
2021/12/23 09:48:49;;;;;;;58.88;25.00;;;;;;;1.21;100.00;101106.34;5082195;28;20033;-76
2021/12/23 09:51:20;;;;;;;58.63;25.35;;;;;;;1.26;100.00;101102.31;5081143;28;20024;-75
2021/12/23 09:53:57;;;;;;;59.13;24.98;;;;;;;1.28;100.00;101097.22;5078358;28;20119;-76
2021/12/23 09:56:24;;;;;;;52.70;23.58;;;;;;;1.37;100.00;101102.03;5092421;28;20075;-77
2021/12/23 09:58:50;;;;;;;65.95;26.17;;;;;;;1.41;100.00;101096.22;5082351;28;20028;-76
2021/12/23 10:01:22;;;;;;;63.35;25.05;;;;;;;1.38;100.00;101086.56;5080842;28;20487;-76
2021/12/23 10:03:47;;;;;;;54.38;23.67;;;;;;;1.43;100.00;101087.72;5093394;28;20035;-77
2021/12/23 10:06:13;;;;;;;54.10;22.60;;;;;;;1.47;100.00;101083.63;5082140;28;20383;-77
2021/12/23 10:08:44;;;;;;;54.63;24.13;;;;;;;1.44;100.00;101076.56;5076588;28;20045;-76
2021/12/23 10:30:38;;;;;;;60.17;24.48;;;;;;;1.72;100.00;101087.59;5087046;28;20077;-77
2021/12/23 10:33:28;;;;;;;53.70;23.40;;;;;;;1.65;100.00;101084.63;5082118;28;20025;-74
2021/12/23 10:38:38;;;;;;;51.70;23.17;;;;;;;1.78;100.00;101064.59;5093097;28;20063;-76
2021/12/23 10:41:15;;;;;;;61.22;24.65;;;;;;;1.82;100.00;101061.38;5087609;28;20035;-76
2021/12/23 10:43:44;;;;;;;49.70;22.02;;;;;;;1.82;100.00;101058.78;5084392;28;20020;-75
2021/12/23 10:46:22;;;;;;;56.20;24.27;;;;;;;1.86;100.00;101063.31;5103604;28;20035;-76
2021/12/23 10:49:32;;;;;;;49.03;23.27;;;;;;;1.92;100.00;101058.47;5099734;28;20103;-75
2021/12/23 10:52:09;;;;;;;52.03;23.73;;;;;;;1.98;100.00;101053.63;5110488;28;20039;-76
2021/12/23 11:00:41;;;;;;;49.85;22.95;;;;;;;2.13;100.00;101063.03;5111343;28;20039;-75
2021/12/23 11:03:24;;;;;;;54.10;24.25;;;;;;;2.22;100.00;101060.03;5089832;28;20475;-75
2021/12/23 11:06:09;;;;;;;52.08;23.17;;;;;;;2.30;100.00;101041.47;5090121;28;20032;-75
2021/12/23 11:08:50;;;;;;;56.50;23.63;;;;;;;2.24;100.00;101048.03;5104564;28;20384;-75
2021/12/23 11:36:35;;;;;;;48.15;21.35;;;;;;;2.65;99.75;100977.47;5111472;28;20379;-72
2021/12/23 11:39:24;;;;;;;50.88;21.50;;;;;;;2.68;99.84;100963.75;5100264;28;20395;-72
2021/12/23 11:42:06;;;;;;;50.30;22.58;;;;;;;2.69;99.96;100947.34;5088676;28;20032;-72
2021/12/23 11:44:33;;;;;;;54.63;23.17;;;;;;;2.72;99.63;100931.03;5094519;28;20020;-73
2021/12/23 11:47:07;;;;;;;45.70;21.88;;;;;;;2.75;100.00;100929.44;5080468;28;20066;-73
2021/12/23 11:49:35;;;;;;;50.00;22.13;;;;;;;2.75;99.70;100931.16;5102166;28;20069;-72
2021/12/23 11:52:01;;;;;;;52.60;22.88;;;;;;;2.77;100.00;100913.94;5089283;28;20047;-72
2021/12/23 11:54:31;;;;;;;50.72;22.95;;;;;;;2.82;99.70;100907.25;5099959;28;20059;-71
2021/12/23 11:57:05;;;;;;;46.45;21.95;;;;;;;2.90;99.71;100899.84;5104321;28;20032;-72
2021/12/23 11:59:33;;;;;;;46.00;21.98;;;;;;;2.87;99.72;100895.38;5107108;28;20035;-72
2021/12/23 12:01:59;;;;;;;42.95;22.05;;;;;;;2.87;99.28;100897.97;5096570;28;20031;-72
2021/12/23 12:04:26;;;;;;;43.78;21.40;;;;;;;2.89;99.43;100885.06;5100321;28;20027;-73
2021/12/23 12:06:53;;;;;;;47.35;22.48;;;;;;;2.95;99.35;100894.03;5099409;28;20031;-71
2021/12/23 12:09:22;;;;;;;43.75;21.17;;;;;;;2.97;99.15;100894.09;5090422;28;20039;-73
2021/12/23 12:12:00;;;;;;;51.97;22.13;;;;;;;2.94;99.69;100887.06;5101770;28;20091;-74
2021/12/23 12:14:40;;;;;;;42.05;21.40;;;;;;;2.95;99.37;100893.16;5090757;28;20035;-73